sensor_id;sensor_type;location;lat;lon;timestamp;P1;durP1;ratioP1;P2;durP2;ratioP2
10293;SDS011;5192;50.328;7.610;2023-04-06T00:01:10;7.23;;;4.87;;
10293;SDS011;5192;50.328;7.610;2023-04-06T00:03:37;6.97;;;5.17;;
10293;SDS011;5192;50.328;7.610;2023-04-06T00:06:05;6.83;;;5.30;;
10293;SDS011;5192;50.328;7.610;2023-04-06T00:08:32;6.13;;;4.80;;
10293;SDS011;5192;50.328;7.610;2023-04-06T00:10:59;5.70;;;5.07;;
10293;SDS011;5192;50.328;7.610;2023-04-06T00:13:28;4.80;;;4.23;;
10293;SDS011;5192;50.328;7.610;2023-04-06T00:15:55;7.77;;;5.50;;
10293;SDS011;5192;50.328;7.610;2023-04-06T00:18:23;6.20;;;4.63;;
10293;SDS011;5192;50.328;7.610;2023-04-06T00:20:49;9.03;;;5.67;;
10293;SDS011;5192;50.328;7.610;2023-04-06T00:23:18;8.47;;;5.03;;
10293;SDS011;5192;50.328;7.610;2023-04-06T00:25:46;7.67;;;5.27;;
10293;SDS011;5192;50.328;7.610;2023-04-06T00:28:13;6.33;;;4.47;;
10293;SDS011;5192;50.328;7.610;2023-04-06T00:30:40;5.90;;;4.60;;
10293;SDS011;5192;50.328;7.610;2023-04-06T00:33:08;6.20;;;4.43;;
10293;SDS011;5192;50.328;7.610;2023-04-06T00:35:35;5.67;;;4.77;;
10293;SDS011;5192;50.328;7.610;2023-04-06T00:38:05;8.07;;;4.70;;
10293;SDS011;5192;50.328;7.610;2023-04-06T00:40:30;7.87;;;4.60;;
10293;SDS011;5192;50.328;7.610;2023-04-06T00:42:59;6.23;;;4.20;;
10293;SDS011;5192;50.328;7.610;2023-04-06T00:45:31;6.23;;;4.70;;
10293;SDS011;5192;50.328;7.610;2023-04-06T00:47:57;6.00;;;4.80;;
10293;SDS011;5192;50.328;7.610;2023-04-06T00:50:25;6.20;;;4.60;;
10293;SDS011;5192;50.328;7.610;2023-04-06T00:52:54;7.23;;;4.83;;
10293;SDS011;5192;50.328;7.610;2023-04-06T00:55:21;5.83;;;5.07;;
10293;SDS011;5192;50.328;7.610;2023-04-06T00:57:50;5.13;;;4.63;;
10293;SDS011;5192;50.328;7.610;2023-04-06T01:00:15;5.30;;;4.80;;
10293;SDS011;5192;50.328;7.610;2023-04-06T01:02:44;5.10;;;4.60;;
10293;SDS011;5192;50.328;7.610;2023-04-06T01:05:15;8.33;;;5.07;;
10293;SDS011;5192;50.328;7.610;2023-04-06T01:07:43;6.03;;;4.80;;
10293;SDS011;5192;50.328;7.610;2023-04-06T01:10:10;6.40;;;4.83;;
10293;SDS011;5192;50.328;7.610;2023-04-06T01:12:37;6.73;;;4.30;;
10293;SDS011;5192;50.328;7.610;2023-04-06T01:15:05;6.33;;;4.77;;
10293;SDS011;5192;50.328;7.610;2023-04-06T01:17:33;5.70;;;4.27;;
10293;SDS011;5192;50.328;7.610;2023-04-06T01:20:01;7.07;;;5.27;;
10293;SDS011;5192;50.328;7.610;2023-04-06T01:22:29;7.17;;;4.60;;
10293;SDS011;5192;50.328;7.610;2023-04-06T01:24:56;7.60;;;5.40;;
10293;SDS011;5192;50.328;7.610;2023-04-06T01:27:24;5.87;;;5.10;;
10293;SDS011;5192;50.328;7.610;2023-04-06T01:29:56;6.57;;;4.57;;
10293;SDS011;5192;50.328;7.610;2023-04-06T01:32:22;5.70;;;4.50;;
10293;SDS011;5192;50.328;7.610;2023-04-06T01:34:50;5.80;;;4.60;;
10293;SDS011;5192;50.328;7.610;2023-04-06T01:37:18;5.83;;;4.63;;
10293;SDS011;5192;50.328;7.610;2023-04-06T01:39:46;5.37;;;4.87;;
10293;SDS011;5192;50.328;7.610;2023-04-06T01:42:11;6.17;;;5.07;;
10293;SDS011;5192;50.328;7.610;2023-04-06T01:44:39;7.50;;;4.60;;
10293;SDS011;5192;50.328;7.610;2023-04-06T01:47:06;5.20;;;4.63;;
10293;SDS011;5192;50.328;7.610;2023-04-06T01:49:33;5.97;;;4.43;;
10293;SDS011;5192;50.328;7.610;2023-04-06T01:51:59;5.37;;;4.30;;
10293;SDS011;5192;50.328;7.610;2023-04-06T01:54:28;5.97;;;4.30;;
10293;SDS011;5192;50.328;7.610;2023-04-06T01:56:55;6.13;;;4.73;;
10293;SDS011;5192;50.328;7.610;2023-04-06T01:59:22;6.40;;;4.70;;
10293;SDS011;5192;50.328;7.610;2023-04-06T02:01:47;6.10;;;4.23;;
10293;SDS011;5192;50.328;7.610;2023-04-06T02:04:16;6.53;;;4.30;;
10293;SDS011;5192;50.328;7.610;2023-04-06T02:06:44;7.60;;;4.57;;
10293;SDS011;5192;50.328;7.610;2023-04-06T02:09:12;7.63;;;4.73;;
10293;SDS011;5192;50.328;7.610;2023-04-06T02:11:37;5.30;;;4.50;;
10293;SDS011;5192;50.328;7.610;2023-04-06T02:14:09;5.77;;;4.80;;
10293;SDS011;5192;50.328;7.610;2023-04-06T02:16:35;6.80;;;5.13;;
10293;SDS011;5192;50.328;7.610;2023-04-06T02:19:03;5.73;;;4.77;;
10293;SDS011;5192;50.328;7.610;2023-04-06T02:21:29;7.87;;;5.43;;
10293;SDS011;5192;50.328;7.610;2023-04-06T02:23:56;7.83;;;4.83;;
10293;SDS011;5192;50.328;7.610;2023-04-06T02:26:26;5.47;;;4.30;;
10293;SDS011;5192;50.328;7.610;2023-04-06T02:28:53;5.67;;;4.20;;
10293;SDS011;5192;50.328;7.610;2023-04-06T02:31:19;6.30;;;4.83;;
10293;SDS011;5192;50.328;7.610;2023-04-06T02:33:46;5.23;;;4.33;;
10293;SDS011;5192;50.328;7.610;2023-04-06T02:36:13;5.17;;;4.67;;
10293;SDS011;5192;50.328;7.610;2023-04-06T02:38:41;5.53;;;4.47;;
10293;SDS011;5192;50.328;7.610;2023-04-06T02:41:07;5.40;;;4.90;;
10293;SDS011;5192;50.328;7.610;2023-04-06T02:43:35;7.97;;;5.20;;
10293;SDS011;5192;50.328;7.610;2023-04-06T02:46:03;5.73;;;4.53;;
10293;SDS011;5192;50.328;7.610;2023-04-06T02:48:30;6.53;;;4.60;;
10293;SDS011;5192;50.328;7.610;2023-04-06T02:50:56;7.60;;;4.67;;
10293;SDS011;5192;50.328;7.610;2023-04-06T02:53:25;7.47;;;5.20;;
10293;SDS011;5192;50.328;7.610;2023-04-06T02:55:54;8.17;;;5.47;;
10293;SDS011;5192;50.328;7.610;2023-04-06T02:58:21;6.73;;;5.63;;
10293;SDS011;5192;50.328;7.610;2023-04-06T03:00:46;7.07;;;5.40;;
10293;SDS011;5192;50.328;7.610;2023-04-06T03:03:13;6.10;;;5.20;;
10293;SDS011;5192;50.328;7.610;2023-04-06T03:05:40;7.70;;;5.47;;
10293;SDS011;5192;50.328;7.610;2023-04-06T03:08:07;6.90;;;5.50;;
10293;SDS011;5192;50.328;7.610;2023-04-06T03:10:33;7.40;;;6.27;;
10293;SDS011;5192;50.328;7.610;2023-04-06T03:13:00;7.70;;;5.97;;
10293;SDS011;5192;50.328;7.610;2023-04-06T03:15:27;6.63;;;5.67;;
10293;SDS011;5192;50.328;7.610;2023-04-06T03:17:53;8.33;;;6.00;;
10293;SDS011;5192;50.328;7.610;2023-04-06T03:20:23;7.00;;;5.83;;
10293;SDS011;5192;50.328;7.610;2023-04-06T03:22:53;9.17;;;6.03;;
10293;SDS011;5192;50.328;7.610;2023-04-06T03:25:22;9.10;;;5.93;;
10293;SDS011;5192;50.328;7.610;2023-04-06T03:27:51;6.30;;;5.23;;
10293;SDS011;5192;50.328;7.610;2023-04-06T03:30:17;24.20;;;15.43;;
10293;SDS011;5192;50.328;7.610;2023-04-06T03:32:47;16.60;;;11.07;;
10293;SDS011;5192;50.328;7.610;2023-04-06T03:35:13;8.97;;;7.13;;
10293;SDS011;5192;50.328;7.610;2023-04-06T03:37:39;8.30;;;6.03;;
10293;SDS011;5192;50.328;7.610;2023-04-06T03:40:06;7.43;;;5.87;;
10293;SDS011;5192;50.328;7.610;2023-04-06T03:42:34;8.97;;;6.17;;
10293;SDS011;5192;50.328;7.610;2023-04-06T03:45:01;8.20;;;6.00;;
10293;SDS011;5192;50.328;7.610;2023-04-06T03:47:28;7.27;;;6.17;;
10293;SDS011;5192;50.328;7.610;2023-04-06T03:49:57;9.57;;;6.20;;
10293;SDS011;5192;50.328;7.610;2023-04-06T03:52:23;9.83;;;6.03;;
10293;SDS011;5192;50.328;7.610;2023-04-06T03:54:52;7.20;;;5.47;;
10293;SDS011;5192;50.328;7.610;2023-04-06T03:57:20;9.93;;;5.97;;
10293;SDS011;5192;50.328;7.610;2023-04-06T03:59:46;7.53;;;6.00;;
10293;SDS011;5192;50.328;7.610;2023-04-06T04:02:12;10.23;;;8.03;;
10293;SDS011;5192;50.328;7.610;2023-04-06T04:04:39;6.63;;;5.33;;
10293;SDS011;5192;50.328;7.610;2023-04-06T04:07:06;7.03;;;5.47;;
10293;SDS011;5192;50.328;7.610;2023-04-06T04:09:35;8.37;;;6.50;;
10293;SDS011;5192;50.328;7.610;2023-04-06T04:12:03;6.90;;;5.80;;
10293;SDS011;5192;50.328;7.610;2023-04-06T04:14:29;7.37;;;5.57;;
10293;SDS011;5192;50.328;7.610;2023-04-06T04:16:57;9.27;;;6.30;;
10293;SDS011;5192;50.328;7.610;2023-04-06T04:19:24;8.30;;;6.07;;
10293;SDS011;5192;50.328;7.610;2023-04-06T04:21:51;8.83;;;6.03;;
10293;SDS011;5192;50.328;7.610;2023-04-06T04:24:19;7.40;;;5.90;;
10293;SDS011;5192;50.328;7.610;2023-04-06T04:26:47;8.40;;;6.83;;
10293;SDS011;5192;50.328;7.610;2023-04-06T04:29:16;7.87;;;5.97;;
10293;SDS011;5192;50.328;7.610;2023-04-06T04:31:47;7.13;;;5.80;;
10293;SDS011;5192;50.328;7.610;2023-04-06T04:34:14;8.43;;;5.77;;
10293;SDS011;5192;50.328;7.610;2023-04-06T04:36:41;7.60;;;6.07;;
10293;SDS011;5192;50.328;7.610;2023-04-06T04:39:08;8.13;;;6.40;;
10293;SDS011;5192;50.328;7.610;2023-04-06T04:41:34;8.67;;;5.97;;
10293;SDS011;5192;50.328;7.610;2023-04-06T04:44:02;8.20;;;6.53;;
10293;SDS011;5192;50.328;7.610;2023-04-06T04:46:30;8.10;;;6.63;;
10293;SDS011;5192;50.328;7.610;2023-04-06T04:48:56;7.47;;;6.33;;
10293;SDS011;5192;50.328;7.610;2023-04-06T04:51:23;8.43;;;6.13;;
10293;SDS011;5192;50.328;7.610;2023-04-06T04:53:51;8.03;;;6.47;;
10293;SDS011;5192;50.328;7.610;2023-04-06T04:56:18;8.63;;;6.80;;
10293;SDS011;5192;50.328;7.610;2023-04-06T04:58:45;8.20;;;5.90;;
10293;SDS011;5192;50.328;7.610;2023-04-06T05:01:13;8.90;;;6.90;;
10293;SDS011;5192;50.328;7.610;2023-04-06T05:03:40;8.80;;;6.57;;
10293;SDS011;5192;50.328;7.610;2023-04-06T05:06:07;9.57;;;6.33;;
10293;SDS011;5192;50.328;7.610;2023-04-06T05:08:35;7.50;;;6.07;;
10293;SDS011;5192;50.328;7.610;2023-04-06T05:11:02;8.60;;;6.40;;
10293;SDS011;5192;50.328;7.610;2023-04-06T05:13:31;8.60;;;6.70;;
10293;SDS011;5192;50.328;7.610;2023-04-06T05:15:58;7.17;;;6.33;;
10293;SDS011;5192;50.328;7.610;2023-04-06T05:18:25;7.90;;;6.10;;
10293;SDS011;5192;50.328;7.610;2023-04-06T05:20:51;7.17;;;5.97;;
10293;SDS011;5192;50.328;7.610;2023-04-06T05:23:18;8.97;;;6.03;;
10293;SDS011;5192;50.328;7.610;2023-04-06T05:25:44;7.70;;;6.43;;
10293;SDS011;5192;50.328;7.610;2023-04-06T05:28:15;8.03;;;6.33;;
10293;SDS011;5192;50.328;7.610;2023-04-06T05:30:44;7.40;;;5.90;;
10293;SDS011;5192;50.328;7.610;2023-04-06T05:33:13;8.37;;;6.20;;
10293;SDS011;5192;50.328;7.610;2023-04-06T05:35:41;7.87;;;6.30;;
10293;SDS011;5192;50.328;7.610;2023-04-06T05:38:10;7.40;;;5.97;;
10293;SDS011;5192;50.328;7.610;2023-04-06T05:40:36;8.93;;;6.83;;
10293;SDS011;5192;50.328;7.610;2023-04-06T05:43:05;8.60;;;6.33;;
10293;SDS011;5192;50.328;7.610;2023-04-06T05:45:31;9.97;;;6.03;;
10293;SDS011;5192;50.328;7.610;2023-04-06T05:47:58;7.67;;;6.63;;
10293;SDS011;5192;50.328;7.610;2023-04-06T05:50:23;9.00;;;6.70;;
10293;SDS011;5192;50.328;7.610;2023-04-06T05:52:49;7.90;;;6.50;;
10293;SDS011;5192;50.328;7.610;2023-04-06T05:55:17;8.37;;;6.23;;
10293;SDS011;5192;50.328;7.610;2023-04-06T05:57:44;9.90;;;6.07;;
10293;SDS011;5192;50.328;7.610;2023-04-06T06:00:11;10.07;;;6.97;;
10293;SDS011;5192;50.328;7.610;2023-04-06T06:02:41;11.07;;;6.83;;
10293;SDS011;5192;50.328;7.610;2023-04-06T06:05:08;8.00;;;6.40;;
10293;SDS011;5192;50.328;7.610;2023-04-06T06:07:36;10.23;;;5.83;;
10293;SDS011;5192;50.328;7.610;2023-04-06T06:10:02;8.03;;;6.33;;
10293;SDS011;5192;50.328;7.610;2023-04-06T06:12:30;8.43;;;6.23;;
10293;SDS011;5192;50.328;7.610;2023-04-06T06:14:57;9.20;;;6.60;;
10293;SDS011;5192;50.328;7.610;2023-04-06T06:17:24;9.93;;;6.33;;
10293;SDS011;5192;50.328;7.610;2023-04-06T06:19:53;8.10;;;6.17;;
10293;SDS011;5192;50.328;7.610;2023-04-06T06:22:20;9.17;;;6.43;;
10293;SDS011;5192;50.328;7.610;2023-04-06T06:24:46;8.67;;;6.47;;
10293;SDS011;5192;50.328;7.610;2023-04-06T06:27:13;8.43;;;6.37;;
10293;SDS011;5192;50.328;7.610;2023-04-06T06:29:39;8.30;;;6.67;;
10293;SDS011;5192;50.328;7.610;2023-04-06T06:32:06;7.90;;;6.47;;
10293;SDS011;5192;50.328;7.610;2023-04-06T06:34:35;9.37;;;6.13;;
10293;SDS011;5192;50.328;7.610;2023-04-06T06:37:02;10.53;;;6.53;;
10293;SDS011;5192;50.328;7.610;2023-04-06T06:39:31;7.60;;;6.60;;
10293;SDS011;5192;50.328;7.610;2023-04-06T06:41:59;10.23;;;6.40;;
10293;SDS011;5192;50.328;7.610;2023-04-06T06:44:28;8.80;;;6.17;;
10293;SDS011;5192;50.328;7.610;2023-04-06T06:46:54;7.63;;;6.00;;
10293;SDS011;5192;50.328;7.610;2023-04-06T06:49:20;10.87;;;6.87;;
10293;SDS011;5192;50.328;7.610;2023-04-06T06:51:48;6.87;;;6.17;;
10293;SDS011;5192;50.328;7.610;2023-04-06T06:54:16;7.67;;;6.47;;
10293;SDS011;5192;50.328;7.610;2023-04-06T06:56:43;8.17;;;6.67;;
10293;SDS011;5192;50.328;7.610;2023-04-06T06:59:08;10.10;;;6.60;;
10293;SDS011;5192;50.328;7.610;2023-04-06T07:01:36;9.00;;;6.10;;
10293;SDS011;5192;50.328;7.610;2023-04-06T07:04:05;8.10;;;6.70;;
10293;SDS011;5192;50.328;7.610;2023-04-06T07:06:37;7.67;;;6.80;;
10293;SDS011;5192;50.328;7.610;2023-04-06T07:09:06;7.40;;;6.37;;
10293;SDS011;5192;50.328;7.610;2023-04-06T07:11:33;8.87;;;6.70;;
10293;SDS011;5192;50.328;7.610;2023-04-06T07:14:00;9.33;;;6.53;;
10293;SDS011;5192;50.328;7.610;2023-04-06T07:16:29;10.10;;;6.50;;
10293;SDS011;5192;50.328;7.610;2023-04-06T07:18:55;8.50;;;6.63;;
10293;SDS011;5192;50.328;7.610;2023-04-06T07:21:23;9.77;;;6.93;;
10293;SDS011;5192;50.328;7.610;2023-04-06T07:23:51;7.87;;;6.57;;
10293;SDS011;5192;50.328;7.610;2023-04-06T07:26:18;8.73;;;6.63;;
10293;SDS011;5192;50.328;7.610;2023-04-06T07:28:45;9.60;;;7.50;;
10293;SDS011;5192;50.328;7.610;2023-04-06T07:31:13;9.60;;;6.97;;
10293;SDS011;5192;50.328;7.610;2023-04-06T07:33:42;10.63;;;7.47;;
10293;SDS011;5192;50.328;7.610;2023-04-06T07:36:08;10.63;;;6.80;;
10293;SDS011;5192;50.328;7.610;2023-04-06T07:38:36;8.83;;;7.00;;
10293;SDS011;5192;50.328;7.610;2023-04-06T07:41:03;9.20;;;7.17;;
10293;SDS011;5192;50.328;7.610;2023-04-06T07:43:31;9.70;;;6.80;;
10293;SDS011;5192;50.328;7.610;2023-04-06T07:45:59;7.83;;;6.57;;
10293;SDS011;5192;50.328;7.610;2023-04-06T07:48:26;8.53;;;6.70;;
10293;SDS011;5192;50.328;7.610;2023-04-06T07:50:59;11.33;;;6.53;;
10293;SDS011;5192;50.328;7.610;2023-04-06T07:53:28;7.57;;;6.30;;
10293;SDS011;5192;50.328;7.610;2023-04-06T07:55:58;8.40;;;6.70;;
10293;SDS011;5192;50.328;7.610;2023-04-06T07:58:25;9.77;;;7.33;;
10293;SDS011;5192;50.328;7.610;2023-04-06T08:00:51;9.37;;;7.17;;
10293;SDS011;5192;50.328;7.610;2023-04-06T08:03:18;8.07;;;6.70;;
10293;SDS011;5192;50.328;7.610;2023-04-06T08:05:47;9.10;;;7.00;;
10293;SDS011;5192;50.328;7.610;2023-04-06T08:08:13;9.20;;;6.87;;
10293;SDS011;5192;50.328;7.610;2023-04-06T08:10:41;12.13;;;7.30;;
10293;SDS011;5192;50.328;7.610;2023-04-06T08:13:08;7.67;;;6.10;;
10293;SDS011;5192;50.328;7.610;2023-04-06T08:15:36;10.47;;;6.80;;
10293;SDS011;5192;50.328;7.610;2023-04-06T08:18:04;10.87;;;7.13;;
10293;SDS011;5192;50.328;7.610;2023-04-06T08:20:30;8.70;;;6.73;;
10293;SDS011;5192;50.328;7.610;2023-04-06T08:22:58;8.80;;;6.83;;
10293;SDS011;5192;50.328;7.610;2023-04-06T08:25:27;10.53;;;6.83;;
10293;SDS011;5192;50.328;7.610;2023-04-06T08:27:56;9.93;;;7.23;;
10293;SDS011;5192;50.328;7.610;2023-04-06T08:30:22;9.60;;;7.23;;
10293;SDS011;5192;50.328;7.610;2023-04-06T08:32:50;9.40;;;6.90;;
10293;SDS011;5192;50.328;7.610;2023-04-06T08:35:17;10.37;;;6.60;;
10293;SDS011;5192;50.328;7.610;2023-04-06T08:37:45;10.07;;;7.17;;
10293;SDS011;5192;50.328;7.610;2023-04-06T08:40:13;10.77;;;6.93;;
10293;SDS011;5192;50.328;7.610;2023-04-06T08:42:44;10.20;;;6.43;;
10293;SDS011;5192;50.328;7.610;2023-04-06T08:45:16;9.27;;;6.63;;
10293;SDS011;5192;50.328;7.610;2023-04-06T08:47:53;10.93;;;6.93;;
10293;SDS011;5192;50.328;7.610;2023-04-06T08:50:23;11.47;;;7.60;;
10293;SDS011;5192;50.328;7.610;2023-04-06T08:52:52;10.50;;;6.70;;
10293;SDS011;5192;50.328;7.610;2023-04-06T08:55:20;10.57;;;7.20;;
10293;SDS011;5192;50.328;7.610;2023-04-06T08:57:49;9.27;;;7.33;;
10293;SDS011;5192;50.328;7.610;2023-04-06T09:00:20;11.17;;;7.60;;
10293;SDS011;5192;50.328;7.610;2023-04-06T09:02:50;10.30;;;6.90;;
10293;SDS011;5192;50.328;7.610;2023-04-06T09:05:21;9.60;;;6.80;;
10293;SDS011;5192;50.328;7.610;2023-04-06T09:07:53;10.10;;;7.00;;
10293;SDS011;5192;50.328;7.610;2023-04-06T09:10:20;12.97;;;7.80;;
10293;SDS011;5192;50.328;7.610;2023-04-06T09:12:51;9.53;;;6.93;;
10293;SDS011;5192;50.328;7.610;2023-04-06T09:15:29;10.83;;;6.77;;
10293;SDS011;5192;50.328;7.610;2023-04-06T09:17:59;10.00;;;7.63;;
10293;SDS011;5192;50.328;7.610;2023-04-06T09:20:25;10.00;;;6.87;;
10293;SDS011;5192;50.328;7.610;2023-04-06T09:22:53;11.37;;;7.70;;
10293;SDS011;5192;50.328;7.610;2023-04-06T09:25:22;12.27;;;7.53;;
10293;SDS011;5192;50.328;7.610;2023-04-06T09:27:57;8.93;;;7.17;;
10293;SDS011;5192;50.328;7.610;2023-04-06T09:30:29;12.30;;;7.50;;
10293;SDS011;5192;50.328;7.610;2023-04-06T09:32:59;10.27;;;7.40;;
10293;SDS011;5192;50.328;7.610;2023-04-06T09:35:24;12.57;;;8.30;;
10293;SDS011;5192;50.328;7.610;2023-04-06T09:38:11;11.33;;;7.53;;
10293;SDS011;5192;50.328;7.610;2023-04-06T09:40:47;10.60;;;7.53;;
10293;SDS011;5192;50.328;7.610;2023-04-06T09:43:26;12.20;;;7.13;;
10293;SDS011;5192;50.328;7.610;2023-04-06T09:45:52;12.17;;;7.60;;
10293;SDS011;5192;50.328;7.610;2023-04-06T09:48:20;9.93;;;7.63;;
10293;SDS011;5192;50.328;7.610;2023-04-06T09:50:53;12.60;;;7.87;;
10293;SDS011;5192;50.328;7.610;2023-04-06T09:53:26;12.43;;;8.37;;
10293;SDS011;5192;50.328;7.610;2023-04-06T09:55:57;11.07;;;7.87;;
10293;SDS011;5192;50.328;7.610;2023-04-06T09:58:33;11.87;;;8.03;;
10293;SDS011;5192;50.328;7.610;2023-04-06T10:01:05;11.27;;;7.80;;
10293;SDS011;5192;50.328;7.610;2023-04-06T10:06:21;11.80;;;7.90;;
10293;SDS011;5192;50.328;7.610;2023-04-06T10:08:53;14.13;;;7.83;;
10293;SDS011;5192;50.328;7.610;2023-04-06T10:11:25;13.13;;;7.27;;
10293;SDS011;5192;50.328;7.610;2023-04-06T10:13:57;12.60;;;7.97;;
10293;SDS011;5192;50.328;7.610;2023-04-06T10:16:25;11.27;;;7.00;;
10293;SDS011;5192;50.328;7.610;2023-04-06T10:18:58;11.67;;;7.10;;
10293;SDS011;5192;50.328;7.610;2023-04-06T10:21:32;10.67;;;6.90;;
10293;SDS011;5192;50.328;7.610;2023-04-06T10:24:01;12.43;;;7.50;;
10293;SDS011;5192;50.328;7.610;2023-04-06T10:26:36;7.87;;;5.83;;
10293;SDS011;5192;50.328;7.610;2023-04-06T10:29:03;11.37;;;7.13;;
10293;SDS011;5192;50.328;7.610;2023-04-06T10:31:30;9.80;;;7.20;;
10293;SDS011;5192;50.328;7.610;2023-04-06T10:34:00;9.80;;;6.73;;
10293;SDS011;5192;50.328;7.610;2023-04-06T10:36:31;9.20;;;6.27;;
10293;SDS011;5192;50.328;7.610;2023-04-06T10:39:05;9.97;;;6.83;;
10293;SDS011;5192;50.328;7.610;2023-04-06T10:41:44;10.20;;;6.93;;
10293;SDS011;5192;50.328;7.610;2023-04-06T10:44:17;9.03;;;6.30;;
10293;SDS011;5192;50.328;7.610;2023-04-06T10:46:54;9.40;;;6.87;;
10293;SDS011;5192;50.328;7.610;2023-04-06T10:49:25;11.27;;;6.97;;
10293;SDS011;5192;50.328;7.610;2023-04-06T10:51:56;9.47;;;5.73;;
10293;SDS011;5192;50.328;7.610;2023-04-06T10:54:23;8.70;;;5.87;;
10293;SDS011;5192;50.328;7.610;2023-04-06T10:56:51;11.27;;;5.93;;
10293;SDS011;5192;50.328;7.610;2023-04-06T10:59:21;9.23;;;5.90;;
10293;SDS011;5192;50.328;7.610;2023-04-06T11:01:50;11.37;;;6.70;;
10293;SDS011;5192;50.328;7.610;2023-04-06T11:04:20;9.03;;;6.07;;
10293;SDS011;5192;50.328;7.610;2023-04-06T11:06:50;9.27;;;6.23;;
10293;SDS011;5192;50.328;7.610;2023-04-06T11:12:02;8.17;;;6.13;;
10293;SDS011;5192;50.328;7.610;2023-04-06T11:14:30;8.33;;;6.27;;
10293;SDS011;5192;50.328;7.610;2023-04-06T11:16:58;9.33;;;6.87;;
10293;SDS011;5192;50.328;7.610;2023-04-06T11:19:27;8.87;;;6.87;;
10293;SDS011;5192;50.328;7.610;2023-04-06T11:21:55;9.87;;;6.50;;
10293;SDS011;5192;50.328;7.610;2023-04-06T11:24:34;9.37;;;7.13;;
10293;SDS011;5192;50.328;7.610;2023-04-06T11:27:03;9.27;;;6.87;;
10293;SDS011;5192;50.328;7.610;2023-04-06T11:29:35;8.53;;;6.47;;
10293;SDS011;5192;50.328;7.610;2023-04-06T11:32:04;8.60;;;6.03;;
10293;SDS011;5192;50.328;7.610;2023-04-06T11:34:34;9.17;;;7.10;;
10293;SDS011;5192;50.328;7.610;2023-04-06T11:37:02;8.87;;;6.87;;
10293;SDS011;5192;50.328;7.610;2023-04-06T11:39:52;8.73;;;6.33;;
10293;SDS011;5192;50.328;7.610;2023-04-06T11:42:29;13.73;;;7.10;;
10293;SDS011;5192;50.328;7.610;2023-04-06T11:44:57;9.07;;;6.50;;
10293;SDS011;5192;50.328;7.610;2023-04-06T11:52:58;9.83;;;7.07;;
10293;SDS011;5192;50.328;7.610;2023-04-06T11:55:36;9.40;;;7.07;;
10293;SDS011;5192;50.328;7.610;2023-04-06T11:58:04;10.43;;;7.13;;
10293;SDS011;5192;50.328;7.610;2023-04-06T12:00:30;10.67;;;7.90;;
10293;SDS011;5192;50.328;7.610;2023-04-06T12:03:00;9.20;;;7.27;;
10293;SDS011;5192;50.328;7.610;2023-04-06T12:05:27;10.03;;;7.60;;
10293;SDS011;5192;50.328;7.610;2023-04-06T12:07:56;10.73;;;7.67;;
10293;SDS011;5192;50.328;7.610;2023-04-06T12:10:22;10.30;;;7.43;;
10293;SDS011;5192;50.328;7.610;2023-04-06T12:12:50;13.40;;;6.97;;
10293;SDS011;5192;50.328;7.610;2023-04-06T12:15:18;9.30;;;7.97;;
10293;SDS011;5192;50.328;7.610;2023-04-06T12:17:45;9.50;;;7.27;;
10293;SDS011;5192;50.328;7.610;2023-04-06T12:20:12;10.90;;;8.80;;
10293;SDS011;5192;50.328;7.610;2023-04-06T12:22:39;11.97;;;8.00;;
10293;SDS011;5192;50.328;7.610;2023-04-06T12:25:05;11.23;;;9.13;;
10293;SDS011;5192;50.328;7.610;2023-04-06T12:27:31;12.47;;;8.60;;
10293;SDS011;5192;50.328;7.610;2023-04-06T12:29:57;9.90;;;8.07;;
10293;SDS011;5192;50.328;7.610;2023-04-06T12:32:25;12.03;;;7.57;;
10293;SDS011;5192;50.328;7.610;2023-04-06T12:34:53;9.83;;;7.33;;
10293;SDS011;5192;50.328;7.610;2023-04-06T12:37:19;10.27;;;6.63;;
10293;SDS011;5192;50.328;7.610;2023-04-06T12:39:47;9.37;;;6.97;;
10293;SDS011;5192;50.328;7.610;2023-04-06T12:42:15;9.90;;;6.97;;
10293;SDS011;5192;50.328;7.610;2023-04-06T12:44:43;10.53;;;7.10;;
10293;SDS011;5192;50.328;7.610;2023-04-06T12:47:14;9.27;;;6.73;;
10293;SDS011;5192;50.328;7.610;2023-04-06T12:49:42;10.47;;;7.13;;
10293;SDS011;5192;50.328;7.610;2023-04-06T12:52:10;8.73;;;7.00;;
10293;SDS011;5192;50.328;7.610;2023-04-06T12:54:37;9.37;;;7.10;;
10293;SDS011;5192;50.328;7.610;2023-04-06T12:57:02;9.53;;;7.00;;
10293;SDS011;5192;50.328;7.610;2023-04-06T12:59:29;9.30;;;7.17;;
10293;SDS011;5192;50.328;7.610;2023-04-06T13:02:01;9.33;;;6.57;;
10293;SDS011;5192;50.328;7.610;2023-04-06T13:04:30;8.77;;;6.47;;
10293;SDS011;5192;50.328;7.610;2023-04-06T13:06:57;8.33;;;6.43;;
10293;SDS011;5192;50.328;7.610;2023-04-06T13:09:25;8.40;;;6.33;;
10293;SDS011;5192;50.328;7.610;2023-04-06T13:11:52;10.17;;;6.27;;
10293;SDS011;5192;50.328;7.610;2023-04-06T13:14:20;8.47;;;6.40;;
10293;SDS011;5192;50.328;7.610;2023-04-06T13:16:48;8.83;;;6.60;;
10293;SDS011;5192;50.328;7.610;2023-04-06T13:19:14;9.77;;;6.50;;
10293;SDS011;5192;50.328;7.610;2023-04-06T13:21:40;10.10;;;6.70;;
10293;SDS011;5192;50.328;7.610;2023-04-06T13:24:08;7.70;;;6.47;;
10293;SDS011;5192;50.328;7.610;2023-04-06T13:26:34;9.20;;;7.30;;
10293;SDS011;5192;50.328;7.610;2023-04-06T13:29:01;9.10;;;6.30;;
10293;SDS011;5192;50.328;7.610;2023-04-06T13:31:28;7.57;;;6.50;;
10293;SDS011;5192;50.328;7.610;2023-04-06T13:33:55;8.10;;;6.63;;
10293;SDS011;5192;50.328;7.610;2023-04-06T13:36:23;8.23;;;6.80;;
10293;SDS011;5192;50.328;7.610;2023-04-06T13:38:52;9.70;;;7.27;;
10293;SDS011;5192;50.328;7.610;2023-04-06T13:41:22;8.57;;;7.13;;
10293;SDS011;5192;50.328;7.610;2023-04-06T13:43:53;9.33;;;7.60;;
10293;SDS011;5192;50.328;7.610;2023-04-06T13:46:21;9.23;;;7.03;;
10293;SDS011;5192;50.328;7.610;2023-04-06T13:48:49;8.10;;;6.43;;
10293;SDS011;5192;50.328;7.610;2023-04-06T13:51:17;9.30;;;7.00;;
10293;SDS011;5192;50.328;7.610;2023-04-06T13:53:45;10.20;;;7.87;;
10293;SDS011;5192;50.328;7.610;2023-04-06T13:56:12;8.73;;;6.87;;
10293;SDS011;5192;50.328;7.610;2023-04-06T13:58:39;7.73;;;6.10;;
10293;SDS011;5192;50.328;7.610;2023-04-06T14:01:07;8.80;;;6.80;;
10293;SDS011;5192;50.328;7.610;2023-04-06T14:03:35;7.50;;;6.47;;
10293;SDS011;5192;50.328;7.610;2023-04-06T14:06:12;9.07;;;6.80;;
10293;SDS011;5192;50.328;7.610;2023-04-06T14:08:40;7.90;;;6.63;;
10293;SDS011;5192;50.328;7.610;2023-04-06T14:11:10;7.57;;;6.60;;
10293;SDS011;5192;50.328;7.610;2023-04-06T14:13:38;9.17;;;7.40;;
10293;SDS011;5192;50.328;7.610;2023-04-06T14:16:06;11.07;;;6.77;;
10293;SDS011;5192;50.328;7.610;2023-04-06T14:18:33;9.13;;;6.47;;
10293;SDS011;5192;50.328;7.610;2023-04-06T14:20:59;10.00;;;6.47;;
10293;SDS011;5192;50.328;7.610;2023-04-06T14:23:27;9.23;;;5.67;;
10293;SDS011;5192;50.328;7.610;2023-04-06T14:26:07;6.83;;;5.00;;
10293;SDS011;5192;50.328;7.610;2023-04-06T14:28:35;10.00;;;5.60;;
10293;SDS011;5192;50.328;7.610;2023-04-06T14:31:09;6.37;;;5.13;;
10293;SDS011;5192;50.328;7.610;2023-04-06T14:33:42;5.93;;;4.53;;
10293;SDS011;5192;50.328;7.610;2023-04-06T14:36:12;6.40;;;5.40;;
10293;SDS011;5192;50.328;7.610;2023-04-06T14:38:43;7.73;;;5.27;;
10293;SDS011;5192;50.328;7.610;2023-04-06T14:41:19;8.07;;;5.10;;
10293;SDS011;5192;50.328;7.610;2023-04-06T14:43:49;6.93;;;5.60;;
10293;SDS011;5192;50.328;7.610;2023-04-06T14:46:19;6.43;;;5.40;;
10293;SDS011;5192;50.328;7.610;2023-04-06T14:48:46;6.67;;;5.97;;
10293;SDS011;5192;50.328;7.610;2023-04-06T14:51:12;8.23;;;5.83;;
10293;SDS011;5192;50.328;7.610;2023-04-06T14:53:39;6.80;;;5.87;;
10293;SDS011;5192;50.328;7.610;2023-04-06T14:56:05;6.33;;;5.30;;
10293;SDS011;5192;50.328;7.610;2023-04-06T14:58:32;7.27;;;6.10;;
10293;SDS011;5192;50.328;7.610;2023-04-06T15:00:59;6.67;;;5.77;;
10293;SDS011;5192;50.328;7.610;2023-04-06T15:03:28;6.53;;;5.83;;
10293;SDS011;5192;50.328;7.610;2023-04-06T15:05:58;6.83;;;6.07;;
10293;SDS011;5192;50.328;7.610;2023-04-06T15:08:25;8.63;;;6.33;;
10293;SDS011;5192;50.328;7.610;2023-04-06T15:10:51;6.50;;;5.80;;
10293;SDS011;5192;50.328;7.610;2023-04-06T15:13:22;8.27;;;6.33;;
10293;SDS011;5192;50.328;7.610;2023-04-06T15:15:50;7.57;;;6.50;;